createdAt,value
2018-06-08T00:00:01.636Z,84.68
2018-06-08T00:02:31.750Z,84.47
2018-06-08T00:05:01.812Z,84.31
2018-06-08T00:07:32.031Z,84.35
2018-06-08T00:10:02.207Z,84.45
2018-06-08T00:12:32.360Z,84.56
2018-06-08T00:15:02.552Z,84.75
2018-06-08T00:17:32.586Z,85.17
2018-06-08T00:20:02.617Z,85.49
2018-06-08T00:22:32.797Z,85.96
2018-06-08T00:25:02.966Z,86.12
2018-06-08T00:27:33.275Z,86.78
2018-06-08T00:30:03.390Z,86.44
2018-06-08T00:32:33.538Z,86.41
2018-06-08T00:35:03.737Z,86.24
2018-06-08T00:37:34.362Z,86.24
2018-06-08T00:40:04.891Z,86.65
2018-06-08T00:42:35.322Z,86.39
2018-06-08T00:45:05.956Z,86.50
2018-06-08T00:47:36.755Z,86.69
2018-06-08T00:50:06.725Z,85.77
2018-06-08T00:52:36.829Z,86.12
2018-06-08T00:55:07.374Z,86.06
2018-06-08T00:57:37.826Z,86.11
2018-06-08T01:00:08.071Z,86.59
2018-06-08T01:02:38.539Z,86.32
2018-06-08T01:05:08.598Z,86.07
2018-06-08T01:07:38.877Z,86.35
2018-06-08T01:10:09.159Z,86.06
2018-06-08T01:12:39.485Z,86.36
2018-06-08T01:15:09.884Z,86.92
2018-06-08T01:17:40.169Z,86.98
2018-06-08T01:20:10.717Z,87.02
2018-06-08T01:22:41.052Z,87.28
2018-06-08T01:25:11.601Z,87.50
2018-06-08T01:27:41.886Z,87.76
2018-06-08T01:30:12.271Z,87.71
2018-06-08T01:32:42.440Z,87.85
2018-06-08T01:35:12.681Z,87.55
2018-06-08T01:37:43.066Z,87.22
2018-06-08T01:40:13.263Z,88.09
2018-06-08T01:42:43.459Z,87.60
2018-06-08T01:45:13.698Z,89.14
2018-06-08T01:47:43.853Z,88.83
2018-06-08T01:50:14.218Z,89.06
2018-06-08T01:52:44.349Z,89.79
2018-06-08T01:55:15.051Z,90.62
2018-06-08T01:57:45.174Z,90.36
2018-06-08T02:00:15.473Z,90.42
2018-06-08T02:02:45.758Z,91.28
2018-06-08T02:05:15.839Z,91.40
2018-06-08T02:07:46.206Z,91.69
2018-06-08T02:10:16.552Z,92.12
2018-06-08T02:12:46.592Z,92.02
2018-06-08T02:15:16.838Z,92.26
2018-06-08T02:17:46.841Z,92.08
2018-06-08T02:20:16.952Z,91.90
2018-06-08T02:22:47.123Z,91.93
2018-06-08T02:25:17.511Z,91.79
2018-06-08T02:27:47.621Z,91.78
2018-06-08T02:30:17.768Z,92.17
2018-06-08T02:32:47.779Z,92.23
2018-06-08T02:35:17.711Z,92.31
2018-06-08T02:37:48.004Z,92.28
2018-06-08T02:40:18.160Z,92.57
2018-06-08T02:42:48.740Z,92.66
2018-06-08T02:45:19.187Z,92.61
2018-06-08T02:47:49.815Z,92.54
2018-06-08T02:50:19.877Z,92.53
2018-06-08T02:52:50.039Z,92.28
2018-06-08T02:55:20.087Z,92.08
2018-06-08T02:57:50.267Z,92.26
2018-06-08T03:00:20.279Z,92.51
2018-06-08T03:02:50.529Z,92.30
2018-06-08T03:05:20.833Z,92.29
2018-06-08T03:07:51.093Z,92.23
2018-06-08T03:10:21.641Z,92.00
2018-06-08T03:12:51.936Z,91.88
2018-06-08T03:15:22.222Z,91.74
2018-06-08T03:17:52.121Z,92.27
2018-06-08T03:20:22.511Z,92.28
2018-06-08T03:22:52.416Z,92.64
2018-06-08T03:25:22.568Z,92.54
2018-06-08T03:27:52.564Z,92.27
2018-06-08T03:30:22.697Z,92.04
2018-06-08T03:32:53.112Z,91.99
2018-06-08T03:35:24.055Z,92.26
2018-06-08T03:37:54.167Z,92.74
2018-06-08T03:40:24.546Z,92.43
2018-06-08T03:42:54.629Z,92.08
2018-06-08T03:45:24.754Z,91.99
2018-06-08T03:47:54.970Z,91.98
2018-06-08T03:50:24.990Z,91.19
2018-06-08T03:52:54.992Z,91.55
2018-06-08T03:55:25.311Z,91.44
2018-06-08T03:57:55.688Z,91.43
2018-06-08T04:00:25.962Z,91.01
2018-06-08T04:02:56.087Z,90.97
2018-06-08T04:05:26.035Z,90.74
2018-06-08T04:07:56.325Z,91.13
2018-06-08T04:10:26.522Z,89.57
2018-06-08T04:12:56.860Z,89.89
2018-06-08T04:15:27.253Z,89.61
2018-06-08T04:17:57.451Z,89.54
2018-06-08T04:20:28.103Z,89.93
2018-06-08T04:22:58.283Z,89.57
2018-06-08T04:25:28.548Z,89.88
2018-06-08T04:27:58.731Z,88.82
2018-06-08T04:30:28.843Z,89.47
2018-06-08T04:32:59.003Z,89.25
2018-06-08T04:35:29.385Z,89.09
2018-06-08T04:37:59.715Z,88.75
2018-06-08T04:40:30.257Z,88.76
2018-06-08T04:43:01.371Z,88.78
2018-06-08T04:45:31.559Z,87.89
2018-06-08T04:48:01.625Z,87.01
2018-06-08T04:50:32.051Z,87.28
2018-06-08T04:53:02.126Z,86.21
2018-06-08T04:55:32.515Z,86.14
2018-06-08T04:58:02.751Z,85.74
2018-06-08T05:00:33.151Z,86.48
2018-06-08T05:03:03.371Z,86.14
2018-06-08T05:05:33.552Z,85.86
2018-06-08T05:08:03.545Z,85.47
2018-06-08T05:10:33.934Z,85.34
2018-06-08T05:13:04.001Z,84.89
2018-06-08T05:15:34.497Z,84.75
2018-06-08T05:18:04.610Z,85.06
2018-06-08T05:20:34.721Z,85.57
2018-06-08T05:23:04.829Z,85.17
2018-06-08T05:25:34.978Z,84.99
2018-06-08T05:28:05.103Z,85.08
2018-06-08T05:30:35.419Z,84.45
2018-06-08T05:33:05.371Z,85.87
2018-06-08T05:35:35.627Z,84.74
2018-06-08T05:38:05.841Z,84.46
2018-06-08T05:40:36.628Z,83.69
2018-06-08T05:43:06.736Z,83.08
2018-06-08T05:45:37.042Z,84.16
2018-06-08T05:48:07.352Z,83.85
2018-06-08T05:50:37.799Z,83.02
2018-06-08T05:53:08.071Z,85.00
2018-06-08T05:55:38.381Z,85.90
2018-06-08T05:58:09.135Z,84.75
2018-06-08T06:00:39.466Z,84.84
2018-06-08T06:03:10.046Z,85.21
2018-06-08T06:05:40.530Z,85.35
2018-06-08T06:08:10.930Z,85.12
2018-06-08T06:10:41.547Z,84.38
2018-06-08T06:13:11.918Z,84.79
2018-06-08T06:15:42.280Z,84.49
2018-06-08T06:18:12.652Z,84.21
2018-06-08T06:20:43.195Z,84.09
2018-06-08T06:23:14.131Z,83.20
2018-06-08T06:25:44.549Z,83.17
2018-06-08T06:28:14.548Z,82.69
2018-06-08T06:30:44.882Z,82.83
2018-06-08T06:33:15.354Z,83.77
2018-06-08T06:35:45.840Z,82.26
2018-06-08T06:38:15.976Z,81.97
2018-06-08T06:40:46.189Z,82.61
2018-06-08T06:43:16.349Z,81.37
2018-06-08T06:45:46.859Z,81.81
2018-06-08T06:48:17.226Z,82.80
2018-06-08T06:50:47.785Z,82.12
2018-06-08T06:53:18.156Z,81.73
2018-06-08T06:55:48.462Z,82.88
2018-06-08T06:58:18.990Z,82.50
2018-06-08T07:00:49.460Z,83.65
2018-06-08T07:03:19.685Z,83.62
2018-06-08T07:05:49.923Z,83.08
2018-06-08T07:08:20.328Z,83.21
2018-06-08T07:10:50.590Z,83.03
2018-06-08T07:13:20.931Z,82.16
2018-06-08T07:15:51.946Z,81.13
2018-06-08T07:18:22.369Z,81.75
2018-06-08T07:20:52.806Z,81.97
2018-06-08T07:23:23.261Z,82.07
2018-06-08T07:25:53.707Z,81.78
2018-06-08T07:28:23.900Z,80.78
2018-06-08T07:30:54.283Z,83.79
2018-06-08T07:33:24.673Z,81.97
2018-06-08T07:35:54.819Z,81.06
2018-06-08T07:38:24.978Z,79.60
2018-06-08T07:40:55.171Z,78.92
2018-06-08T07:43:25.388Z,79.15
2018-06-08T07:45:55.533Z,79.21
2018-06-08T07:48:25.710Z,77.76
2018-06-08T07:50:55.960Z,78.11
2018-06-08T07:53:26.203Z,78.54
2018-06-08T07:55:56.541Z,77.99
2018-06-08T07:58:27.173Z,77.64
2018-06-08T08:00:57.368Z,77.65
2018-06-08T08:03:27.708Z,77.24
2018-06-08T08:05:57.818Z,76.42
2018-06-08T08:08:27.806Z,76.98
2018-06-08T08:10:58.036Z,76.47
2018-06-08T08:13:27.847Z,77.81
2018-06-08T08:15:57.859Z,77.73
2018-06-08T08:18:27.817Z,78.25
2018-06-08T08:20:57.706Z,79.04
2018-06-08T08:23:27.718Z,77.20
2018-06-08T08:25:57.613Z,78.12
2018-06-08T08:28:27.491Z,76.06
2018-06-08T08:30:57.409Z,76.90
2018-06-08T08:33:27.289Z,76.12
2018-06-08T08:35:57.289Z,76.64
2018-06-08T08:38:27.102Z,76.23
2018-06-08T08:40:56.945Z,75.55
2018-06-08T08:43:26.777Z,74.60
2018-06-08T08:45:56.712Z,73.32
2018-06-08T08:48:26.470Z,71.58
2018-06-08T08:50:56.427Z,71.13
2018-06-08T08:53:26.219Z,70.30
2018-06-08T08:55:56.127Z,70.46
2018-06-08T08:58:26.092Z,70.55
2018-06-08T09:00:56.023Z,72.91
2018-06-08T09:03:25.839Z,71.03
2018-06-08T09:05:56.607Z,69.22
2018-06-08T09:08:26.419Z,68.45
2018-06-08T09:10:56.349Z,68.18
2018-06-08T09:13:26.205Z,69.14
2018-06-08T09:15:56.125Z,67.73
2018-06-08T09:18:25.927Z,71.81
2018-06-08T09:20:55.952Z,70.18
2018-06-08T09:23:25.803Z,70.07
2018-06-08T09:25:55.715Z,68.68
2018-06-08T09:28:25.866Z,67.95
2018-06-08T09:30:55.748Z,67.50
2018-06-08T09:33:25.708Z,66.96
2018-06-08T09:35:55.936Z,67.25
2018-06-08T09:38:26.154Z,66.67
2018-06-08T09:40:56.080Z,63.90
2018-06-08T09:43:26.005Z,63.54
2018-06-08T09:45:56.109Z,62.66
2018-06-08T09:48:26.315Z,64.22
2018-06-08T09:50:56.348Z,63.34
2018-06-08T09:53:26.276Z,62.19
2018-06-08T09:55:56.225Z,63.33
2018-06-08T09:58:25.994Z,61.94
2018-06-08T10:00:55.897Z,60.03
2018-06-08T10:03:25.698Z,58.81
2018-06-08T10:05:55.489Z,59.28
2018-06-08T10:08:25.940Z,60.20
2018-06-08T10:10:55.958Z,60.54
2018-06-08T10:13:25.834Z,60.94
2018-06-08T10:15:55.867Z,61.12
2018-06-08T10:18:25.661Z,59.65
2018-06-08T10:20:55.599Z,59.20
2018-06-08T10:23:25.360Z,59.56
2018-06-08T10:25:55.306Z,59.14
2018-06-08T10:28:26.138Z,58.93
2018-06-08T10:30:56.237Z,59.12
2018-06-08T10:33:26.035Z,56.67
2018-06-08T10:35:55.908Z,57.82
2018-06-08T10:38:25.777Z,58.61
2018-06-08T10:40:55.613Z,59.66
2018-06-08T10:43:25.402Z,60.69
2018-06-08T10:45:55.250Z,62.31
2018-06-08T10:48:25.283Z,60.40
2018-06-08T10:50:55.075Z,60.06
2018-06-08T10:53:24.848Z,58.14
2018-06-08T10:55:54.734Z,56.50
2018-06-08T10:58:24.509Z,56.71
2018-06-08T11:00:54.279Z,55.81
2018-06-08T11:03:24.074Z,54.07
2018-06-08T11:05:53.965Z,53.94
2018-06-08T11:08:23.977Z,54.23
2018-06-08T11:10:53.864Z,53.20
2018-06-08T11:13:23.756Z,51.72
2018-06-08T11:15:53.598Z,51.31
2018-06-08T11:18:23.686Z,51.50
2018-06-08T11:20:53.626Z,51.60
2018-06-08T11:23:23.558Z,51.33
2018-06-08T11:25:53.571Z,49.86
2018-06-08T11:28:23.432Z,51.66
2018-06-08T11:30:53.642Z,51.17
2018-06-08T11:33:23.436Z,50.72
2018-06-08T11:35:53.438Z,50.32
2018-06-08T11:38:23.231Z,50.27
2018-06-08T11:40:53.098Z,49.33
2018-06-08T11:43:23.604Z,48.21
2018-06-08T11:45:53.734Z,48.91
2018-06-08T11:48:23.678Z,49.05
2018-06-08T11:50:53.742Z,48.89
2018-06-08T11:53:23.664Z,47.81
2018-06-08T11:55:53.723Z,47.02
2018-06-08T11:58:23.532Z,47.83
2018-06-08T12:00:53.335Z,47.73
2018-06-08T12:03:23.178Z,46.67
2018-06-08T12:05:53.133Z,47.72
2018-06-08T12:08:22.943Z,46.50
2018-06-08T12:10:52.804Z,46.52
2018-06-08T12:13:22.641Z,47.20
2018-06-08T12:15:52.388Z,49.29
2018-06-08T12:18:22.226Z,48.07
2018-06-08T12:20:52.331Z,46.72
2018-06-08T12:23:22.635Z,48.16
2018-06-08T12:25:53.091Z,48.23
2018-06-08T12:28:23.196Z,47.75
2018-06-08T12:30:53.418Z,47.14
2018-06-08T12:33:23.775Z,47.61
2018-06-08T12:35:53.870Z,46.32
2018-06-08T12:38:24.122Z,46.56
2018-06-08T12:40:54.407Z,45.68
2018-06-08T12:43:24.588Z,45.83
2018-06-08T12:45:54.879Z,45.30
2018-06-08T12:48:25.126Z,45.99
2018-06-08T12:50:55.369Z,43.95
2018-06-08T12:53:25.567Z,43.69
2018-06-08T12:55:56.591Z,44.13
2018-06-08T12:58:26.713Z,43.41
2018-06-08T13:00:56.902Z,44.11
2018-06-08T13:03:27.027Z,44.71
2018-06-08T13:05:57.426Z,44.45
2018-06-08T13:08:27.444Z,44.16
2018-06-08T13:10:57.862Z,43.77
2018-06-08T13:13:28.062Z,43.47
2018-06-08T13:15:58.147Z,43.68
2018-06-08T13:18:28.911Z,42.43
2018-06-08T13:20:59.235Z,41.54
2018-06-08T13:23:29.310Z,41.85
2018-06-08T13:25:59.600Z,40.87
2018-06-08T13:28:30.042Z,40.33
2018-06-08T13:31:00.335Z,41.06
2018-06-08T13:33:30.407Z,40.41
2018-06-08T13:36:00.631Z,41.80
2018-06-08T13:38:30.644Z,40.70
2018-06-08T13:41:00.879Z,40.29
2018-06-08T13:43:31.234Z,39.02
2018-06-08T13:46:01.554Z,39.92
2018-06-08T13:48:31.709Z,41.75
2018-06-08T13:51:01.924Z,42.25
2018-06-08T13:53:32.146Z,41.21
2018-06-08T13:56:02.392Z,42.06
2018-06-08T13:58:32.627Z,42.31
2018-06-08T14:01:02.805Z,40.49
2018-06-08T14:03:32.866Z,39.76
2018-06-08T14:06:03.042Z,40.18
2018-06-08T14:08:33.250Z,39.34
2018-06-08T14:11:03.430Z,40.37
2018-06-08T14:13:33.706Z,39.50
2018-06-08T14:16:04.197Z,39.93
2018-06-08T14:18:34.398Z,39.66
2018-06-08T14:21:04.663Z,39.00
2018-06-08T14:23:34.923Z,39.64
2018-06-08T14:26:05.366Z,40.36
2018-06-08T14:28:35.636Z,40.00
2018-06-08T14:31:05.982Z,40.51
2018-06-08T14:33:36.173Z,39.26
2018-06-08T14:36:06.273Z,39.11
2018-06-08T14:38:36.317Z,39.14
2018-06-08T14:41:06.414Z,39.12
2018-06-08T14:43:37.215Z,40.25
2018-06-08T14:46:07.484Z,38.35
2018-06-08T14:48:37.950Z,37.62
2018-06-08T14:51:08.423Z,36.79
2018-06-08T14:53:38.949Z,39.53
2018-06-08T14:56:09.310Z,36.71
2018-06-08T14:58:39.549Z,33.81
2018-06-08T15:01:09.543Z,34.84
2018-06-08T15:03:39.539Z,34.73
2018-06-08T15:06:10.387Z,36.78
2018-06-08T15:08:40.902Z,38.86
2018-06-08T15:11:11.188Z,40.24
2018-06-08T15:13:41.857Z,36.85
2018-06-08T15:16:12.282Z,35.12
2018-06-08T15:18:42.515Z,34.07
2018-06-08T15:21:12.949Z,36.02
2018-06-08T15:23:43.119Z,34.74
2018-06-08T15:26:13.379Z,32.93
2018-06-08T15:28:43.906Z,31.64
2018-06-08T15:31:14.351Z,31.08
2018-06-08T15:33:45.173Z,29.44
2018-06-08T15:36:16.640Z,29.36
2018-06-08T15:38:47.062Z,29.38
2018-06-08T15:41:17.367Z,29.01
2018-06-08T15:43:47.462Z,30.24
2018-06-08T15:46:17.690Z,30.43
2018-06-08T15:48:47.865Z,30.50
2018-06-08T15:51:18.082Z,32.87
2018-06-08T15:53:48.373Z,33.99
2018-06-08T15:56:18.820Z,33.91
2018-06-08T15:58:48.970Z,35.39
2018-06-08T16:01:19.158Z,33.74
2018-06-08T16:03:49.464Z,34.37
2018-06-08T16:06:19.306Z,34.70
2018-06-08T16:08:49.406Z,35.75
2018-06-08T16:11:19.746Z,35.28
2018-06-08T16:13:49.830Z,36.45
2018-06-08T16:16:20.105Z,37.34
2018-06-08T16:18:50.306Z,36.87
2018-06-08T16:21:20.720Z,37.50
2018-06-08T16:23:50.952Z,36.74
2018-06-08T16:26:21.330Z,38.76
2018-06-08T16:28:51.438Z,40.40
2018-06-08T16:31:21.731Z,41.09
2018-06-08T16:33:52.451Z,40.97
2018-06-08T16:36:22.800Z,40.41
2018-06-08T16:38:52.969Z,42.46
2018-06-08T16:41:23.168Z,45.40
2018-06-08T16:43:53.380Z,44.90
2018-06-08T16:46:23.628Z,44.01
2018-06-08T16:48:53.704Z,43.40
2018-06-08T16:51:23.944Z,44.17
2018-06-08T16:53:54.290Z,45.29
2018-06-08T16:56:24.469Z,43.98
2018-06-08T16:58:54.507Z,45.42
2018-06-08T17:01:24.634Z,45.80
2018-06-08T17:03:54.922Z,46.08
2018-06-08T17:06:25.055Z,45.32
2018-06-08T17:08:55.262Z,45.05
2018-06-08T17:11:25.420Z,46.00
2018-06-08T17:13:55.626Z,46.84
2018-06-08T17:16:25.863Z,46.79
2018-06-08T17:18:56.167Z,47.30
2018-06-08T17:21:26.787Z,49.15
2018-06-08T17:23:56.952Z,48.39
2018-06-08T17:26:27.123Z,48.00
2018-06-08T17:28:57.544Z,47.71
2018-06-08T17:31:27.771Z,48.61
2018-06-08T17:33:58.050Z,49.74
2018-06-08T17:36:29.115Z,51.04
2018-06-08T17:38:59.556Z,51.87
2018-06-08T17:41:29.859Z,52.17
2018-06-08T17:44:00.150Z,51.84
2018-06-08T17:46:30.281Z,52.00
2018-06-08T17:49:00.507Z,53.35
2018-06-08T17:51:30.839Z,53.55
2018-06-08T17:54:01.007Z,54.76
2018-06-08T17:56:32.321Z,55.49
2018-06-08T17:59:02.916Z,55.99
2018-06-08T18:01:33.117Z,57.44
2018-06-08T18:04:03.349Z,57.63
2018-06-08T18:06:33.452Z,58.21
2018-06-08T18:09:04.780Z,57.42
2018-06-08T18:11:34.723Z,57.77
2018-06-08T18:14:04.822Z,58.69
2018-06-08T18:16:35.078Z,59.29
2018-06-08T18:19:05.482Z,59.05
2018-06-08T18:21:35.633Z,59.41
2018-06-08T18:24:05.782Z,59.39
2018-06-08T18:26:35.849Z,59.77
2018-06-08T18:29:05.922Z,60.73
2018-06-08T18:31:36.153Z,60.29
2018-06-08T18:34:06.313Z,60.14
2018-06-08T18:36:36.437Z,60.47
2018-06-08T18:39:08.548Z,60.75
2018-06-08T18:41:39.124Z,61.20
2018-06-08T18:44:09.249Z,61.56
2018-06-08T18:46:39.583Z,62.42
2018-06-08T18:49:09.902Z,62.73
2018-06-08T18:51:40.926Z,62.46
2018-06-08T18:54:11.066Z,62.69
2018-06-08T18:56:41.286Z,62.26
2018-06-08T18:59:11.493Z,63.17
2018-06-08T19:01:41.689Z,63.52
2018-06-08T19:04:11.843Z,63.34
2018-06-08T19:06:41.965Z,62.74
2018-06-08T19:09:12.063Z,62.97
2018-06-08T19:11:42.319Z,63.54
2018-06-08T19:14:12.442Z,63.61
2018-06-08T19:16:42.653Z,64.64
2018-06-08T19:19:13.187Z,63.91
2018-06-08T19:21:43.611Z,65.17
2018-06-08T19:24:14.282Z,65.02
2018-06-08T19:26:44.695Z,65.35
2018-06-08T19:29:15.028Z,65.58
2018-06-08T19:31:45.223Z,66.01
2018-06-08T19:34:15.522Z,65.50
2018-06-08T19:36:45.770Z,65.28
2018-06-08T19:39:16.005Z,66.49
2018-06-08T19:41:46.791Z,66.20
2018-06-08T19:44:17.123Z,66.60
2018-06-08T19:46:47.619Z,67.09
2018-06-08T19:49:18.019Z,66.60
2018-06-08T19:51:48.212Z,67.78
2018-06-08T19:54:18.334Z,67.43
2018-06-08T19:56:48.515Z,67.83
2018-06-08T19:59:18.744Z,69.25
2018-06-08T20:01:48.878Z,68.84
2018-06-08T20:04:19.174Z,69.28
2018-06-08T20:06:49.407Z,69.49
2018-06-08T20:09:19.726Z,69.72
2018-06-08T20:11:49.916Z,69.62
2018-06-08T20:14:20.066Z,69.16
2018-06-08T20:16:50.301Z,70.02
2018-06-08T20:19:20.453Z,69.22
2018-06-08T20:21:50.822Z,69.56
2018-06-08T20:24:21.021Z,70.02
2018-06-08T20:26:51.298Z,69.62
2018-06-08T20:29:21.443Z,69.93
2018-06-08T20:31:51.425Z,70.67
2018-06-08T20:34:21.499Z,70.85
2018-06-08T20:36:51.590Z,70.74
2018-06-08T20:39:21.967Z,71.19
2018-06-08T20:41:52.137Z,71.87
2018-06-08T20:44:22.507Z,71.40
2018-06-08T20:46:52.611Z,72.10
2018-06-08T20:49:22.804Z,72.30
2018-06-08T20:51:53.006Z,72.41
2018-06-08T20:54:22.944Z,71.72
2018-06-08T20:57:04.091Z,72.69
2018-06-08T20:59:33.993Z,72.51
2018-06-08T21:02:04.229Z,73.12
2018-06-08T21:04:34.530Z,73.35
2018-06-08T21:07:04.800Z,72.52
2018-06-08T21:09:34.951Z,72.54
2018-06-08T21:12:05.165Z,72.77
2018-06-08T21:14:35.791Z,73.64
2018-06-08T21:17:06.804Z,73.98
2018-06-08T21:19:37.575Z,73.94
2018-06-08T21:22:07.801Z,74.24
2018-06-08T21:24:38.156Z,74.09
2018-06-08T21:27:08.705Z,74.70
2018-06-08T21:29:39.392Z,74.99
2018-06-08T21:32:09.690Z,75.28
2018-06-08T21:34:40.039Z,76.23
2018-06-08T21:37:10.367Z,76.64
2018-06-08T21:39:40.802Z,76.95
2018-06-08T21:42:11.198Z,76.45
2018-06-08T21:44:41.525Z,76.07
2018-06-08T21:47:11.610Z,77.15
2018-06-08T21:49:41.957Z,77.41
2018-06-08T21:52:12.384Z,77.45
2018-06-08T21:54:42.953Z,77.16
2018-06-08T21:57:18.644Z,77.49
2018-06-08T21:59:52.028Z,78.46
2018-06-08T22:02:22.362Z,78.26
2018-06-08T22:04:52.965Z,77.55
2018-06-08T22:07:23.407Z,78.07
2018-06-08T22:09:54.467Z,78.55
2018-06-08T22:12:24.578Z,78.58
2018-06-08T22:14:54.868Z,79.21
2018-06-08T22:17:24.982Z,79.00
2018-06-08T22:19:55.210Z,79.81
2018-06-08T22:22:25.533Z,79.28
2018-06-08T22:24:55.739Z,79.43
2018-06-08T22:27:25.972Z,79.29
2018-06-08T22:29:56.181Z,78.86
2018-06-08T22:32:26.335Z,80.12
2018-06-08T22:34:56.951Z,79.46
2018-06-08T22:37:27.263Z,80.57
2018-06-08T22:39:57.377Z,80.71
2018-06-08T22:42:27.609Z,81.72
2018-06-08T22:44:57.838Z,81.78
2018-06-08T22:47:28.362Z,82.01
2018-06-08T22:49:58.617Z,81.98
2018-06-08T22:52:29.118Z,81.92
2018-06-08T22:54:59.326Z,81.82
2018-06-08T22:57:29.643Z,82.02
2018-06-08T22:59:59.694Z,81.95
2018-06-08T23:02:29.818Z,82.37
2018-06-08T23:04:59.793Z,82.56
2018-06-08T23:07:30.051Z,83.50
2018-06-08T23:10:00.174Z,83.17
2018-06-08T23:12:30.187Z,83.22
2018-06-08T23:15:00.521Z,83.56
2018-06-08T23:17:30.731Z,82.78
2018-06-08T23:20:00.980Z,83.79
2018-06-08T23:22:31.378Z,76.03
2018-06-08T23:25:01.312Z,72.15
2018-06-08T23:27:31.597Z,71.27
2018-06-08T23:30:01.828Z,72.28
2018-06-08T23:32:32.480Z,73.76
2018-06-08T23:35:02.443Z,73.04
2018-06-08T23:37:34.358Z,73.61
2018-06-08T23:42:39.821Z,75.61
2018-06-08T23:45:09.938Z,75.53
2018-06-08T23:47:40.157Z,76.95
2018-06-08T23:50:10.776Z,76.93
2018-06-08T23:52:41.006Z,78.19
2018-06-08T23:55:11.647Z,77.22
2018-06-08T23:57:41.654Z,76.48
